createdAt,value
2022-09-05T00:02:36.295Z,102321.66
2022-09-05T00:05:42.802Z,102332.59
2022-09-05T00:08:30.354Z,102331.81
2022-09-05T00:11:22.319Z,102336.00
2022-09-05T00:15:14.471Z,102332.78
2022-09-05T00:17:27.811Z,102331.16
2022-09-05T00:24:24.708Z,102334.13
2022-09-05T00:24:35.545Z,102329.28
2022-09-05T00:26:06.767Z,102324.91
2022-09-05T00:28:39.289Z,102332.75
2022-09-05T00:31:54.379Z,102327.44
2022-09-05T00:34:36.227Z,102334.66
2022-09-05T00:37:27.438Z,102332.03
2022-09-05T00:40:17.743Z,102328.75
2022-09-05T00:42:49.801Z,102341.88
2022-09-05T00:45:25.092Z,102339.06
2022-09-05T00:47:59.493Z,102341.88
2022-09-05T00:50:31.406Z,102340.81
2022-09-05T00:53:06.900Z,102347.81
2022-09-05T00:55:41.140Z,102338.91
2022-09-05T00:58:20.927Z,102345.00
2022-09-05T01:00:53.306Z,102344.19
2022-09-05T01:03:45.309Z,102348.78
2022-09-05T01:06:24.624Z,102346.03
2022-09-05T01:09:07.564Z,102343.38
2022-09-05T01:11:43.838Z,102348.97
2022-09-05T01:14:23.853Z,102343.78
2022-09-05T01:17:14.528Z,102350.00
2022-09-05T01:19:53.643Z,102345.72
2022-09-05T01:22:40.820Z,102348.13
2022-09-05T01:25:22.150Z,102342.91
2022-09-05T01:29:13.006Z,102343.72
2022-09-05T01:30:51.420Z,102346.41
2022-09-05T01:33:26.751Z,102342.88
2022-09-05T01:36:08.762Z,102346.25
2022-09-05T01:38:48.310Z,102342.97
2022-09-05T01:41:37.502Z,102346.59
2022-09-05T01:44:16.296Z,102343.84
2022-09-05T01:46:50.808Z,102348.88
2022-09-05T01:49:25.941Z,102352.47
2022-09-05T01:52:28.226Z,102350.56
2022-09-05T01:55:10.192Z,102354.41
2022-09-05T01:57:45.413Z,102367.50
2022-09-05T02:00:18.081Z,102368.16
2022-09-05T02:02:55.254Z,102366.50
2022-09-05T02:06:01.637Z,102364.06
2022-09-05T02:08:53.686Z,102367.47
2022-09-05T02:11:39.976Z,102363.38
2022-09-05T02:14:12.457Z,102370.56
2022-09-05T02:16:54.222Z,102363.34
2022-09-05T02:19:26.534Z,102367.97
2022-09-05T02:22:02.752Z,102361.13
2022-09-05T02:24:37.030Z,102362.19
2022-09-05T02:27:43.548Z,102367.88
2022-09-05T02:30:10.600Z,102363.84
2022-09-05T02:32:49.520Z,102367.41
2022-09-05T02:35:23.712Z,102374.97
2022-09-05T02:38:54.354Z,102368.97
2022-09-05T02:45:09.111Z,102365.44
2022-09-05T02:45:09.926Z,102365.66
2022-09-05T02:46:31.764Z,102362.81
2022-09-05T02:49:07.743Z,102365.63
2022-09-05T02:57:28.484Z,102373.34
2022-09-05T02:57:41.754Z,102361.25
2022-09-05T02:58:06.056Z,102363.09
2022-09-05T03:00:30.191Z,102359.59
2022-09-05T03:03:20.614Z,102358.66
2022-09-05T03:05:57.154Z,102356.19
2022-09-05T03:08:49.849Z,102354.47
2022-09-05T03:11:50.811Z,102351.72
2022-09-05T03:14:44.871Z,102353.31
2022-09-05T03:17:46.104Z,102352.81
2022-09-05T03:20:39.188Z,102350.41
2022-09-05T03:23:41.268Z,102342.53
2022-09-05T03:26:48.956Z,102342.00
2022-09-05T03:29:43.335Z,102341.25
2022-09-05T03:32:48.884Z,102349.13
2022-09-05T03:35:46.712Z,102344.09
2022-09-05T03:38:50.128Z,102345.09
2022-09-05T03:41:38.309Z,102347.84
2022-09-05T03:44:26.049Z,102348.78
2022-09-05T03:47:25.823Z,102355.78
2022-09-05T03:53:57.103Z,102354.22
2022-09-05T03:57:15.325Z,102353.97
2022-09-05T03:57:25.241Z,102354.19
2022-09-05T03:59:35.917Z,102355.78
2022-09-05T04:03:17.869Z,102356.75
2022-09-05T04:08:20.618Z,102354.13
2022-09-05T04:08:23.604Z,102352.47
2022-09-05T04:10:50.994Z,102368.16
2022-09-05T04:13:22.282Z,102374.97
2022-09-05T04:16:02.343Z,102371.75
2022-09-05T04:18:37.410Z,102366.44
2022-09-05T04:21:10.382Z,102373.59
2022-09-05T04:23:48.867Z,102380.81
2022-09-05T04:26:45.854Z,102376.19
2022-09-05T04:29:19.140Z,102382.59
2022-09-05T04:32:18.264Z,102384.06
2022-09-05T04:34:56.535Z,102385.81
2022-09-05T04:37:48.491Z,102395.19
2022-09-05T04:40:50.953Z,102392.88
2022-09-05T04:43:29.760Z,102399.84
2022-09-05T04:46:08.785Z,102395.56
2022-09-05T04:48:42.665Z,102399.03
2022-09-05T04:51:12.827Z,102405.78
2022-09-05T04:54:01.136Z,102408.56
2022-09-05T04:56:34.490Z,102413.72
2022-09-05T05:00:47.091Z,102412.13
2022-09-05T05:06:10.312Z,102416.59
2022-09-05T05:06:16.674Z,102416.50
2022-09-05T05:07:41.879Z,102413.88
2022-09-05T05:11:01.147Z,102413.94
2022-09-05T05:17:55.923Z,102419.03
2022-09-05T05:18:11.815Z,102428.50
2022-09-05T05:18:59.528Z,102424.13
2022-09-05T05:21:32.899Z,102423.41
2022-09-05T05:24:02.826Z,102428.78
2022-09-05T05:26:35.254Z,102427.13
2022-09-05T05:29:08.658Z,102426.91
2022-09-05T05:31:39.070Z,102433.00
2022-09-05T05:34:24.622Z,102433.06
2022-09-05T05:37:00.913Z,102439.91
2022-09-05T05:39:30.930Z,102442.59
2022-09-05T05:42:20.008Z,102437.94
2022-09-05T05:44:49.757Z,102445.66
2022-09-05T05:47:31.277Z,102451.78
2022-09-05T05:50:11.778Z,102447.38
2022-09-05T05:53:08.805Z,102456.13
2022-09-05T05:55:54.591Z,102447.44
2022-09-05T05:58:46.902Z,102453.44
2022-09-05T06:01:49.034Z,102457.78
2022-09-05T06:04:44.863Z,102457.03
2022-09-05T06:07:23.334Z,102455.06
2022-09-05T06:14:42.781Z,102455.94
2022-09-05T06:15:05.373Z,102449.06
2022-09-05T06:17:07.635Z,102462.19
2022-09-05T06:22:04.357Z,102464.38
2022-09-05T06:23:36.694Z,102459.53
2022-09-05T06:26:22.642Z,102456.53
2022-09-05T06:29:05.762Z,102463.25
2022-09-05T06:31:38.533Z,102461.97
2022-09-05T06:34:35.947Z,102461.78
2022-09-05T06:37:11.319Z,102474.41
2022-09-05T06:39:58.501Z,102478.38
2022-09-05T06:42:43.467Z,102475.78
2022-09-05T06:45:31.926Z,102473.28
2022-09-05T06:48:11.098Z,102473.50
2022-09-05T06:51:09.225Z,102481.75
2022-09-05T06:54:04.997Z,102471.19
2022-09-05T06:56:56.087Z,102474.28
2022-09-05T06:59:59.090Z,102478.94
2022-09-05T07:02:58.887Z,102466.69
2022-09-05T07:05:39.561Z,102468.13
2022-09-05T07:08:36.497Z,102474.34
2022-09-05T07:11:16.854Z,102468.34
2022-09-05T07:13:56.374Z,102461.72
2022-09-05T07:16:37.924Z,102465.34
2022-09-05T07:19:24.284Z,102462.00
2022-09-05T07:22:29.642Z,102468.09
2022-09-05T07:25:04.675Z,102459.03
2022-09-05T07:27:41.875Z,102469.03
2022-09-05T07:30:28.197Z,102469.38
2022-09-05T07:33:01.447Z,102480.41
2022-09-05T07:35:34.659Z,102468.69
2022-09-05T07:38:15.079Z,102477.56
2022-09-05T07:40:49.759Z,102477.19
2022-09-05T07:43:23.478Z,102483.06
2022-09-05T07:46:03.474Z,102479.41
2022-09-05T07:48:37.280Z,102486.63
2022-09-05T07:56:51.731Z,102488.25
2022-09-05T07:56:55.619Z,102483.47
2022-09-05T07:57:22.430Z,102497.72
2022-09-05T07:59:37.685Z,102488.81
2022-09-05T08:02:07.090Z,102488.66
2022-09-05T08:04:39.371Z,102490.88
2022-09-05T08:07:45.731Z,102497.28
2022-09-05T08:10:08.868Z,102490.47
2022-09-05T08:13:22.489Z,102495.84
2022-09-05T08:15:38.325Z,102496.13
2022-09-05T08:18:18.794Z,102498.97
2022-09-05T08:20:50.002Z,102498.44
2022-09-05T08:23:31.867Z,102508.53
2022-09-05T08:26:01.457Z,102509.31
2022-09-05T08:28:39.235Z,102518.13
2022-09-05T08:31:12.510Z,102504.59
2022-09-05T08:33:40.248Z,102514.22
2022-09-05T08:36:12.949Z,102507.72
2022-09-05T08:38:42.948Z,102512.94
2022-09-05T08:41:16.434Z,102511.28
2022-09-05T08:46:36.665Z,102514.38
2022-09-05T08:46:50.072Z,102512.34
2022-09-05T08:49:39.487Z,102514.25
2022-09-05T08:52:14.808Z,102517.28
2022-09-05T08:55:02.860Z,102512.69
2022-09-05T08:57:53.906Z,102506.91
2022-09-05T09:00:24.490Z,102518.50
2022-09-05T09:03:04.537Z,102514.06
2022-09-05T09:06:16.224Z,102503.59
2022-09-05T09:08:56.177Z,102503.00
2022-09-05T09:11:30.945Z,102504.00
2022-09-05T09:14:32.637Z,102494.38
2022-09-05T09:17:07.333Z,102490.78
2022-09-05T09:19:47.007Z,102491.94
2022-09-05T09:22:21.404Z,102488.28
2022-09-05T09:25:15.932Z,102479.84
2022-09-05T09:28:50.322Z,102478.03
2022-09-05T09:31:10.740Z,102484.56
2022-09-05T09:33:42.831Z,102480.59
2022-09-05T09:36:23.090Z,102478.19
2022-09-05T09:39:08.155Z,102481.75
2022-09-05T09:42:32.832Z,102466.31
2022-09-05T09:45:28.668Z,102469.50
2022-09-05T09:48:33.518Z,102463.34
2022-09-05T09:51:22.831Z,102474.66
2022-09-05T09:54:03.179Z,102468.56
2022-09-05T09:56:58.511Z,102465.75
2022-09-05T09:59:36.309Z,102464.97
2022-09-05T10:05:22.467Z,102458.16
2022-09-05T10:10:39.331Z,102459.56
2022-09-05T10:10:49.029Z,102450.75
2022-09-05T10:12:31.656Z,102461.28
2022-09-05T10:15:13.269Z,102458.91
2022-09-05T10:18:14.621Z,102450.56
2022-09-05T10:21:16.191Z,102440.19
2022-09-05T10:24:09.270Z,102437.00
2022-09-05T10:27:03.951Z,102444.66
2022-09-05T10:29:50.392Z,102446.44
2022-09-05T10:34:53.482Z,102447.78
2022-09-05T10:35:23.533Z,102437.16
2022-09-05T10:37:56.396Z,102443.28
2022-09-05T10:40:26.540Z,102448.00
2022-09-05T10:43:00.464Z,102440.34
2022-09-05T10:45:38.507Z,102438.53
2022-09-05T10:48:13.197Z,102412.56
2022-09-05T10:50:44.104Z,102424.97
2022-09-05T10:53:25.560Z,102422.88
2022-09-05T10:56:01.950Z,102416.53
2022-09-05T11:01:14.805Z,102418.41
2022-09-05T11:02:28.150Z,102415.50
2022-09-05T11:04:49.965Z,102417.06
2022-09-05T11:07:27.945Z,102401.66
2022-09-05T11:10:06.783Z,102408.66
2022-09-05T11:12:47.943Z,102404.97
2022-09-05T11:15:31.184Z,102393.50
2022-09-05T11:18:03.867Z,102397.84
2022-09-05T11:20:50.155Z,102394.28
2022-09-05T11:23:22.164Z,102396.66
2022-09-05T11:26:00.704Z,102389.81
2022-09-05T11:28:37.009Z,102392.44
2022-09-05T11:31:12.689Z,102387.41
2022-09-05T11:39:48.798Z,102390.16
2022-09-05T11:40:06.267Z,102385.22
2022-09-05T11:40:31.417Z,102393.44
2022-09-05T11:43:45.767Z,102372.75
2022-09-05T11:46:26.260Z,102379.03
2022-09-05T11:49:15.482Z,102373.56
2022-09-05T11:52:21.255Z,102382.09
2022-09-05T11:55:20.857Z,102367.81
2022-09-05T11:58:44.253Z,102361.84
2022-09-05T12:01:41.286Z,102376.75
2022-09-05T12:04:19.016Z,102362.88
2022-09-05T12:07:30.417Z,102363.72
2022-09-05T12:10:45.728Z,102354.66
2022-09-05T12:13:17.137Z,102338.81
2022-09-05T12:16:08.197Z,102357.69
2022-09-05T12:18:42.944Z,102346.84
2022-09-05T12:21:25.135Z,102346.00
2022-09-05T12:25:15.286Z,102347.44
2022-09-05T12:27:39.058Z,102356.44
2022-09-05T12:29:42.944Z,102338.00
2022-09-05T12:33:32.359Z,102344.78
2022-09-05T12:36:04.558Z,102345.13
2022-09-05T12:40:55.920Z,102332.97
2022-09-05T12:41:39.253Z,102328.84
2022-09-05T12:44:39.866Z,102333.09
2022-09-05T12:46:58.667Z,102319.25
2022-09-05T12:49:52.158Z,102322.22
2022-09-05T12:52:31.560Z,102315.44
2022-09-05T12:55:09.296Z,102321.59
2022-09-05T13:02:26.406Z,102317.13
2022-09-05T13:03:01.532Z,102321.97
2022-09-05T13:03:40.596Z,102327.69
2022-09-05T13:06:24.832Z,102322.63
2022-09-05T13:09:00.214Z,102326.13
2022-09-05T13:14:50.869Z,102313.03
2022-09-05T13:15:01.669Z,102323.69
2022-09-05T13:17:14.016Z,102326.75
2022-09-05T13:19:51.399Z,102313.84
2022-09-05T13:22:21.839Z,102308.09
2022-09-05T13:24:51.904Z,102323.94
2022-09-05T13:27:26.154Z,102312.97
2022-09-05T13:30:46.876Z,102318.31
2022-09-05T13:38:01.202Z,102314.19
2022-09-05T13:38:06.614Z,102307.78
2022-09-05T13:38:48.429Z,102304.72
2022-09-05T13:41:27.715Z,102301.22
2022-09-05T13:44:00.274Z,102304.78
2022-09-05T13:46:58.247Z,102305.00
2022-09-05T13:49:31.596Z,102294.78
2022-09-05T13:52:13.415Z,102290.47
2022-09-05T13:54:47.590Z,102291.34
2022-09-05T13:57:34.624Z,102277.44
2022-09-05T14:00:54.848Z,102287.50
2022-09-05T14:03:55.658Z,102297.13
2022-09-05T14:06:47.372Z,102280.78
2022-09-05T14:09:38.388Z,102292.13
2022-09-05T14:12:12.014Z,102294.22
2022-09-05T14:17:57.878Z,102290.09
2022-09-05T14:20:49.774Z,102291.69
2022-09-05T14:23:19.796Z,102287.47
2022-09-05T14:25:52.454Z,102284.72
2022-09-05T14:28:27.169Z,102296.28
2022-09-05T14:35:00.755Z,102285.88
2022-09-05T14:37:42.575Z,102275.19
2022-09-05T14:37:54.126Z,102274.63
2022-09-05T14:40:29.505Z,102270.81
2022-09-05T14:43:13.969Z,102257.84
2022-09-05T14:46:00.652Z,102276.38
2022-09-05T14:48:43.162Z,102268.06
2022-09-05T14:51:25.492Z,102270.13
2022-09-05T14:54:12.764Z,102268.72
2022-09-05T15:00:05.349Z,102269.31
2022-09-05T15:02:43.423Z,102274.31
2022-09-05T15:02:50.548Z,102269.38
2022-09-05T15:05:20.088Z,102268.44
2022-09-05T15:07:49.859Z,102268.47
2022-09-05T15:12:19.833Z,102270.19
2022-09-05T15:13:25.793Z,102255.97
2022-09-05T15:16:02.863Z,102263.84
2022-09-05T15:18:32.971Z,102268.41
2022-09-05T15:21:30.748Z,102267.78
2022-09-05T15:24:13.698Z,102272.94
2022-09-05T15:26:53.156Z,102265.91
2022-09-05T15:29:23.833Z,102291.16
2022-09-05T15:31:59.419Z,102279.19
2022-09-05T15:34:38.724Z,102275.53
2022-09-05T15:37:29.950Z,102275.44
2022-09-05T15:40:07.647Z,102273.63
2022-09-05T15:42:53.093Z,102276.47
2022-09-05T15:45:25.068Z,102280.41
2022-09-05T15:48:08.186Z,102270.91
2022-09-05T15:50:42.197Z,102269.50
2022-09-05T15:53:12.685Z,102261.63
2022-09-05T15:55:46.817Z,102261.63
2022-09-05T15:58:20.591Z,102256.50
2022-09-05T16:00:52.037Z,102268.06
2022-09-05T16:05:08.921Z,102268.84
2022-09-05T16:10:33.561Z,102267.94
2022-09-05T16:10:45.711Z,102269.81
2022-09-05T16:12:17.706Z,102266.38
2022-09-05T16:15:07.145Z,102268.50
2022-09-05T16:23:12.237Z,102274.31
2022-09-05T16:23:31.631Z,102272.31
2022-09-05T16:23:40.446Z,102277.53
2022-09-05T16:26:12.916Z,102283.28
2022-09-05T16:28:49.653Z,102270.09
2022-09-05T16:31:25.897Z,102267.94
2022-09-05T16:33:55.849Z,102260.78
2022-09-05T16:36:27.188Z,102281.50
2022-09-05T16:38:58.195Z,102275.22
2022-09-05T16:41:32.907Z,102285.66
2022-09-05T16:44:18.094Z,102292.56
2022-09-05T16:47:01.231Z,102276.63
2022-09-05T16:49:43.138Z,102279.28
2022-09-05T16:52:17.813Z,102282.34
2022-09-05T16:54:50.529Z,102282.09
2022-09-05T16:57:22.008Z,102282.53
2022-09-05T16:59:51.246Z,102276.56
2022-09-05T17:02:28.360Z,102280.34
2022-09-05T17:05:10.045Z,102287.78
2022-09-05T17:08:09.053Z,102289.38
2022-09-05T17:10:44.625Z,102284.84
2022-09-05T17:13:37.369Z,102288.81
2022-09-05T17:16:06.314Z,102291.00
2022-09-05T17:18:37.521Z,102290.75
2022-09-05T17:21:08.226Z,102286.84
2022-09-05T17:29:16.161Z,102289.06
2022-09-05T17:29:36.537Z,102285.00
2022-09-05T17:32:43.340Z,102277.38
2022-09-05T17:35:31.744Z,102283.94
2022-09-05T17:38:20.532Z,102284.84
2022-09-05T17:41:28.538Z,102266.63
2022-09-05T17:44:00.329Z,102269.50
2022-09-05T17:46:31.809Z,102267.84
2022-09-05T17:49:18.610Z,102272.72
2022-09-05T17:52:27.237Z,102271.75
2022-09-05T17:54:57.599Z,102269.94
2022-09-05T17:57:42.128Z,102272.72
2022-09-05T18:01:01.070Z,102277.22
2022-09-05T18:04:17.103Z,102277.53
2022-09-05T18:07:00.725Z,102262.03
2022-09-05T18:13:12.452Z,102269.34
2022-09-05T18:16:10.881Z,102271.69
2022-09-05T18:19:28.784Z,102264.97
2022-09-05T18:21:48.473Z,102278.06
2022-09-05T18:24:25.021Z,102272.94
2022-09-05T18:27:28.004Z,102277.47
2022-09-05T18:30:01.713Z,102274.00
2022-09-05T18:32:45.627Z,102275.19
2022-09-05T18:35:26.639Z,102282.44
2022-09-05T18:38:15.409Z,102278.94
2022-09-05T18:40:52.987Z,102280.75
2022-09-05T18:44:19.958Z,102268.91
2022-09-05T18:46:51.256Z,102265.31
2022-09-05T18:50:22.104Z,102262.06
2022-09-05T18:52:16.710Z,102267.47
2022-09-05T18:55:46.370Z,102267.22
2022-09-05T18:57:46.979Z,102264.91
2022-09-05T19:00:15.120Z,102254.69
2022-09-05T19:02:58.642Z,102250.31
2022-09-05T19:05:37.533Z,102260.09
2022-09-05T19:08:26.792Z,102247.19
2022-09-05T19:11:00.388Z,102266.34
2022-09-05T19:13:32.180Z,102262.84
2022-09-05T19:16:42.465Z,102268.34
2022-09-05T19:19:16.077Z,102274.50
2022-09-05T19:21:56.300Z,102256.13
2022-09-05T19:24:45.065Z,102260.75
2022-09-05T19:28:26.356Z,102271.22
2022-09-05T19:36:55.589Z,102266.13
2022-09-05T19:36:55.952Z,102259.75
2022-09-05T19:37:13.244Z,102260.06
2022-09-05T19:39:10.170Z,102264.34
2022-09-05T19:47:29.948Z,102261.88
2022-09-05T19:47:38.727Z,102257.63
2022-09-05T19:47:47.966Z,102250.78
2022-09-05T19:50:09.410Z,102255.00
2022-09-05T19:52:40.109Z,102243.84
2022-09-05T19:55:20.391Z,102257.72
2022-09-05T19:57:55.629Z,102250.84
2022-09-05T20:00:38.912Z,102255.16
2022-09-05T20:03:07.052Z,102254.50
2022-09-05T20:05:39.830Z,102263.28
2022-09-05T20:08:12.278Z,102251.59
2022-09-05T20:10:40.949Z,102253.69
2022-09-05T20:13:21.808Z,102255.59
2022-09-05T20:15:50.325Z,102247.72
2022-09-05T20:18:21.160Z,102256.66
2022-09-05T20:20:54.782Z,102251.28
2022-09-05T20:23:25.599Z,102253.09
2022-09-05T20:25:55.582Z,102250.59
2022-09-05T20:28:25.770Z,102245.56
2022-09-05T20:30:55.542Z,102245.56
2022-09-05T20:33:26.049Z,102237.88
2022-09-05T20:43:10.320Z,102239.63
2022-09-05T20:43:14.802Z,102235.25
2022-09-05T20:43:24.923Z,102240.31
2022-09-05T20:44:41.200Z,102240.38
2022-09-05T20:50:51.272Z,102234.53
2022-09-05T20:54:20.156Z,102235.34
2022-09-05T20:54:26.605Z,102241.34
2022-09-05T20:55:44.851Z,102244.84
2022-09-05T20:58:14.811Z,102243.25
2022-09-05T21:01:11.726Z,102239.06
2022-09-05T21:03:37.853Z,102244.41
2022-09-05T21:06:22.040Z,102246.94
2022-09-05T21:08:51.400Z,102248.44
2022-09-05T21:11:30.001Z,102252.09
2022-09-05T21:14:01.431Z,102244.31
2022-09-05T21:16:31.988Z,102243.44
2022-09-05T21:19:00.224Z,102241.72
2022-09-05T21:21:30.310Z,102243.47
2022-09-05T21:24:18.100Z,102249.78
2022-09-05T21:26:51.334Z,102246.28
2022-09-05T21:29:32.581Z,102243.59
2022-09-05T21:32:01.651Z,102240.28
2022-09-05T21:34:33.056Z,102239.59
2022-09-05T21:37:07.107Z,102235.88
2022-09-05T21:39:39.994Z,102237.44
2022-09-05T21:45:08.510Z,102233.31
2022-09-05T21:47:48.740Z,102236.75
2022-09-05T21:47:53.756Z,102236.97
2022-09-05T21:50:31.153Z,102236.03
2022-09-05T21:53:15.901Z,102237.03
2022-09-05T21:59:21.314Z,102224.06
2022-09-05T21:59:26.442Z,102225.69
2022-09-05T22:01:51.698Z,102231.94
2022-09-05T22:04:19.020Z,102235.13
2022-09-05T22:06:48.415Z,102239.56
2022-09-05T22:09:17.553Z,102237.91
2022-09-05T22:11:47.975Z,102242.19
2022-09-05T22:14:17.640Z,102237.91
2022-09-05T22:16:47.568Z,102237.22
2022-09-05T22:19:22.345Z,102229.44
2022-09-05T22:21:51.632Z,102225.06
2022-09-05T22:24:20.009Z,102226.84
2022-09-05T22:27:10.921Z,102222.56
2022-09-05T22:29:40.804Z,102233.81
2022-09-05T22:32:09.298Z,102229.56
2022-09-05T22:34:37.338Z,102225.38
2022-09-05T22:37:05.674Z,102228.66
2022-09-05T22:39:37.059Z,102227.91
2022-09-05T22:42:10.652Z,102227.91
2022-09-05T22:44:41.222Z,102217.44
2022-09-05T22:47:10.017Z,102216.63
2022-09-05T22:49:38.381Z,102219.69
2022-09-05T22:52:07.110Z,102212.75
2022-09-05T22:54:35.448Z,102221.59
2022-09-05T22:57:03.689Z,102222.34
2022-09-05T22:59:31.930Z,102214.75
2022-09-05T23:02:01.303Z,102213.06
2022-09-05T23:04:29.395Z,102222.59
2022-09-05T23:06:57.472Z,102212.44
2022-09-05T23:10:05.717Z,102216.84
2022-09-05T23:12:36.967Z,102218.75
2022-09-05T23:15:05.406Z,102224.63
2022-09-05T23:17:34.708Z,102227.22
2022-09-05T23:20:03.628Z,102215.34
2022-09-05T23:22:31.612Z,102218.75
2022-09-05T23:24:59.529Z,102219.47
2022-09-05T23:27:28.304Z,102212.50
2022-09-05T23:29:56.291Z,102215.31
2022-09-05T23:32:24.237Z,102212.75
2022-09-05T23:34:53.563Z,102201.81
2022-09-05T23:37:21.509Z,102208.25
2022-09-05T23:39:49.484Z,102201.31
2022-09-05T23:42:17.518Z,102202.03
2022-09-05T23:44:45.510Z,102191.63
2022-09-05T23:47:13.458Z,102198.97
2022-09-05T23:49:41.498Z,102201.63
2022-09-05T23:52:10.867Z,102197.22
2022-09-05T23:54:39.102Z,102196.34
2022-09-05T23:57:07.191Z,102203.66
2022-09-05T23:59:35.175Z,102202.59
